Time;durP1;ratioP1;P1;durP2;ratioP2;P2;SDS_P1;SDS_P2;PMS_P1;PMS_P2;Temp;Humidity;BMP_temperature;BMP_pressure;BME280_temperature;BME280_humidity;BME280_pressure;Samples;Min_cycle;Max_cycle;Signal;HPM_P1;HPM_P2
2023/06/05 00:05:38;;;;;;;10.15;5.00;;;;;;;20.15;100.00;101195.22;21171160;28;20051;-74
2023/06/05 00:16:03;;;;;;;8.38;4.93;;;;;;;20.20;100.00;101172.75;21156699;27;20237;-74
2023/06/05 00:26:26;;;;;;;9.85;5.25;;;;;;;20.19;100.00;101172.78;21159002;27;20055;-74
2023/06/05 00:36:51;;;;;;;12.20;5.70;;;;;;;20.20;100.00;101162.03;21165780;27;20059;-74
2023/06/05 00:47:13;;;;;;;8.15;5.70;;;;;;;20.19;100.00;101145.97;21162968;27;20047;-73
2023/06/05 00:57:39;;;;;;;9.70;5.90;;;;;;;20.15;100.00;101142.44;21156285;27;20044;-73
2023/06/05 01:08:03;;;;;;;10.25;5.88;;;;;;;20.14;100.00;101124.63;21139932;28;20051;-73
2023/06/05 01:18:28;;;;;;;11.07;6.78;;;;;;;20.15;100.00;101123.69;21137919;27;20048;-74
2023/06/05 01:28:54;;;;;;;15.40;8.80;;;;;;;20.16;100.00;101125.44;21162707;27;20055;-74
2023/06/05 01:39:18;;;;;;;12.10;8.30;;;;;;;20.15;100.00;101101.38;21139469;27;20062;-74
2023/06/05 01:49:42;;;;;;;12.20;8.50;;;;;;;20.11;100.00;101108.56;21142686;27;20427;-74
2023/06/05 02:00:10;;;;;;;11.45;8.48;;;;;;;20.01;100.00;101093.59;21166839;27;20388;-74
2023/06/05 02:10:42;;;;;;;13.73;8.68;;;;;;;20.01;100.00;101106.09;21132429;28;20675;-74
2023/06/05 02:21:06;;;;;;;11.63;8.65;;;;;;;19.98;100.00;101117.75;21128974;28;20483;-74
2023/06/05 02:31:31;;;;;;;13.50;8.48;;;;;;;19.99;100.00;101127.56;21143212;27;20047;-74
2023/06/05 02:41:55;;;;;;;11.57;8.35;;;;;;;19.95;100.00;101131.22;21112142;27;20575;-74
2023/06/05 02:52:20;;;;;;;13.70;8.57;;;;;;;19.88;100.00;101132.22;21134351;27;20051;-73
2023/06/05 03:02:48;;;;;;;11.98;9.10;;;;;;;19.84;100.00;101128.69;21100449;27;20079;-74
2023/06/05 03:13:12;;;;;;;15.70;9.33;;;;;;;19.84;100.00;101136.72;21122562;28;20079;-74
2023/06/05 03:23:35;;;;;;;13.82;9.13;;;;;;;19.88;100.00;101142.94;21109234;28;20531;-74
2023/06/05 03:34:03;;;;;;;12.40;6.82;;;;;;;20.04;100.00;101152.47;21113385;28;20127;-75
2023/06/05 03:44:27;;;;;;;14.18;7.78;;;;;;;20.35;100.00;101152.00;21111720;28;20050;-74
2023/06/05 03:54:53;;;;;;;10.48;6.35;;;;;;;20.73;100.00;101137.84;21132884;28;20048;-73
2023/06/05 04:05:16;;;;;;;9.68;7.00;;;;;;;21.20;100.00;101156.53;21126084;28;20043;-74
2023/06/05 04:15:41;;;;;;;11.55;6.57;;;;;;;21.65;100.00;101145.69;21147753;28;20051;-74
2023/06/05 04:26:05;;;;;;;9.38;6.20;;;;;;;22.02;100.00;101153.75;21118449;28;20499;-74
2023/06/05 04:36:32;;;;;;;10.07;5.32;;;;;;;22.34;100.00;101145.72;21115562;28;20043;-74
2023/06/05 04:46:54;;;;;;;9.05;5.03;;;;;;;22.80;100.00;101156.16;21116805;28;20441;-74
2023/06/05 04:57:19;;;;;;;7.68;4.40;;;;;;;23.36;100.00;101169.75;21139998;27;20125;-73
2023/06/05 05:07:43;;;;;;;8.30;4.53;;;;;;;23.84;100.00;101164.66;21115579;28;20112;-73
2023/06/05 05:18:08;;;;;;;8.38;4.75;;;;;;;24.19;100.00;101167.09;21133135;27;20445;-74
2023/06/05 05:28:31;;;;;;;8.07;4.38;;;;;;;24.67;100.00;101165.44;21135487;28;20067;-74
2023/06/05 05:38:57;;;;;;;6.97;4.38;;;;;;;25.31;100.00;101175.63;21133266;27;20482;-74
2023/06/05 05:49:19;;;;;;;9.00;4.20;;;;;;;25.79;100.00;101166.53;21180431;27;20146;-74
2023/06/05 05:59:44;;;;;;;8.63;4.30;;;;;;;26.01;100.00;101180.94;21138346;27;20055;-74
2023/06/05 06:10:08;;;;;;;9.32;4.63;;;;;;;26.15;100.00;101181.25;21152403;27;20553;-73
2023/06/05 06:20:33;;;;;;;8.68;4.70;;;;;;;25.86;100.00;101200.53;21129644;27;20052;-74
2023/06/05 06:30:56;;;;;;;9.82;4.32;;;;;;;26.18;100.00;101189.25;21107088;27;20051;-74
2023/06/05 06:41:21;;;;;;;9.93;5.22;;;;;;;27.44;100.00;101193.53;21131628;27;20507;-74
2023/06/05 06:51:44;;;;;;;7.75;4.45;;;;;;;26.64;100.00;101211.69;21133537;27;20103;-74
2023/06/05 07:02:13;;;;;;;7.60;4.70;;;;;;;25.85;100.00;101214.09;21129131;27;20092;-74
2023/06/05 07:12:36;;;;;;;10.30;4.70;;;;;;;25.97;100.00;101205.50;21158106;27;20057;-73
2023/06/05 07:23:00;;;;;;;10.10;4.00;;;;;;;26.15;100.00;101205.59;21152612;27;20146;-74
2023/06/05 07:33:23;;;;;;;7.72;4.50;;;;;;;25.60;100.00;101209.66;21130291;28;20076;-74
2023/06/05 07:43:48;;;;;;;7.32;3.92;;;;;;;26.42;100.00;101205.41;21146187;28;20048;-74
2023/06/05 07:54:11;;;;;;;8.13;3.83;;;;;;;26.18;100.00;101205.50;21186333;28;20523;-74
2023/06/05 08:04:36;;;;;;;10.73;3.95;;;;;;;27.28;100.00;101214.22;21174947;27;20047;-74
2023/06/05 08:14:58;;;;;;;9.00;4.10;;;;;;;27.08;100.00;101212.44;21149518;28;20086;-74
2023/06/05 08:25:22;;;;;;;9.00;4.40;;;;;;;27.68;100.00;101237.69;21135008;28;20048;-74
2023/06/05 08:35:45;;;;;;;8.77;4.07;;;;;;;27.25;100.00;101230.63;21144840;27;20385;-75
2023/06/05 08:46:11;;;;;;;7.63;3.67;;;;;;;27.59;100.00;101235.38;21163179;27;20515;-74
2023/06/05 08:56:36;;;;;;;10.87;4.40;;;;;;;28.13;100.00;101232.72;21155371;27;20051;-74
2023/06/05 09:07:01;;;;;;;7.90;3.40;;;;;;;28.77;100.00;101225.88;21162445;27;20089;-74
2023/06/05 09:17:23;;;;;;;9.15;3.97;;;;;;;29.09;100.00;101216.00;21215610;27;20059;-74
2023/06/05 09:28:07;;;;;;;8.25;3.85;;;;;;;29.30;100.00;101221.16;21151401;27;20046;-74
2023/06/05 09:38:29;;;;;;;9.85;4.22;;;;;;;29.27;98.65;101225.91;21151182;27;20044;-75
2023/06/05 09:49:00;;;;;;;8.40;4.07;;;;;;;29.45;95.36;101219.47;21166982;27;20047;-75
2023/06/05 09:59:22;;;;;;;11.05;4.32;;;;;;;29.29;94.53;101241.16;21127626;27;20054;-74
2023/06/05 10:09:50;;;;;;;8.65;3.38;;;;;;;29.60;96.86;101234.09;21147485;27;20043;-74
2023/06/05 10:20:13;;;;;;;12.30;3.97;;;;;;;29.25;100.00;101238.72;21137534;27;20108;-74
2023/06/05 10:31:22;;;;;;;11.80;4.18;;;;;;;29.11;100.00;101238.56;21158034;27;20051;-74
2023/06/05 10:41:44;;;;;;;11.70;4.20;;;;;;;29.73;99.78;101227.81;21161795;27;20468;-74
2023/06/05 10:52:37;;;;;;;10.43;4.18;;;;;;;29.85;98.54;101218.09;21127115;27;20054;-74
2023/06/05 11:03:01;;;;;;;11.18;4.10;;;;;;;30.23;97.71;101204.13;21164261;27;20039;-74
2023/06/05 11:13:25;;;;;;;9.48;4.05;;;;;;;30.31;93.72;101182.75;21153920;27;20433;-74
2023/06/05 11:24:17;;;;;;;9.55;3.28;;;;;;;29.99;88.23;101171.94;21152453;27;20069;-74
2023/06/05 11:34:48;;;;;;;9.48;4.45;;;;;;;29.77;88.67;101176.81;21133823;27;20187;-73
2023/06/05 11:45:12;;;;;;;10.05;3.75;;;;;;;29.83;89.60;101178.31;21140691;28;20045;-73
2023/06/05 11:55:54;;;;;;;11.02;4.57;;;;;;;29.53;87.44;101189.13;21113448;28;20051;-74
2023/06/05 12:06:17;;;;;;;9.02;4.50;;;;;;;29.57;86.83;101177.97;21105875;27;20054;-74
2023/06/05 12:16:44;;;;;;;10.82;4.82;;;;;;;29.98;87.00;101182.91;21193049;27;20059;-74
2023/06/05 12:27:07;;;;;;;10.40;5.30;;;;;;;29.92;82.31;101175.09;21156276;27;20062;-74
2023/06/05 12:37:37;;;;;;;11.70;5.10;;;;;;;30.26;76.76;101174.00;21153189;27;20797;-73
2023/06/05 12:48:00;;;;;;;13.70;4.53;;;;;;;29.85;83.81;101155.47;21167494;27;20066;-74
2023/06/05 12:58:24;;;;;;;9.88;4.70;;;;;;;29.72;81.46;101165.34;21150918;27;20514;-74
2023/06/05 13:08:47;;;;;;;13.15;5.30;;;;;;;29.99;87.16;101177.38;21166606;27;20044;-74
2023/06/05 13:19:11;;;;;;;10.10;4.65;;;;;;;30.15;78.87;101171.00;21190538;27;20520;-75
2023/06/05 13:29:35;;;;;;;12.15;5.25;;;;;;;29.81;74.99;101150.28;21172952;27;20189;-74
2023/06/05 13:39:59;;;;;;;12.50;5.82;;;;;;;29.60;78.09;101131.50;21163413;27;20103;-75
2023/06/05 13:50:21;;;;;;;8.75;4.68;;;;;;;29.60;85.73;101125.22;21138230;27;20101;-75
2023/06/05 14:00:47;;;;;;;12.15;5.57;;;;;;;29.65;89.27;101115.81;20810663;22;20053;-74
2023/06/05 14:11:10;;;;;;;16.25;5.30;;;;;;;28.88;94.52;101114.75;20794555;28;20072;-74
2023/06/05 14:21:35;;;;;;;12.75;5.13;;;;;;;28.93;98.28;101116.25;20795176;28;20493;-74
2023/06/05 14:31:57;;;;;;;12.30;5.10;;;;;;;28.02;100.00;101114.75;20797050;28;20403;-75
2023/06/05 14:42:23;;;;;;;13.23;5.78;;;;;;;27.84;100.00;101085.81;20786182;28;20053;-73
2023/06/05 14:52:45;;;;;;;11.55;5.10;;;;;;;27.79;100.00;101096.91;20770550;28;20053;-75
2023/06/05 15:03:10;;;;;;;15.63;7.35;;;;;;;27.95;100.00;101086.16;20791584;28;20072;-74
2023/06/05 15:13:33;;;;;;;14.20;6.05;;;;;;;27.92;100.00;101083.59;20793365;28;20111;-75
2023/06/05 15:23:58;;;;;;;11.68;5.43;;;;;;;27.34;100.00;101071.06;20797263;28;20045;-75
2023/06/05 15:34:21;;;;;;;12.35;6.18;;;;;;;26.93;100.00;101080.31;20793240;28;20060;-74
2023/06/05 15:44:47;;;;;;;12.15;5.43;;;;;;;26.36;100.00;101083.81;20790885;28;20065;-74
2023/06/05 15:55:10;;;;;;;12.43;6.82;;;;;;;26.08;100.00;101066.06;20792905;28;20389;-74
2023/06/05 16:05:34;;;;;;;17.00;9.07;;;;;;;25.91;100.00;101065.91;20778669;28;20081;-75
2023/06/05 16:15:57;;;;;;;19.48;11.23;;;;;;;25.61;100.00;101067.19;20790399;28;20053;-74
2023/06/05 16:26:21;;;;;;;20.75;9.13;;;;;;;25.29;100.00;101071.19;20784896;28;20053;-74
2023/06/05 16:36:44;;;;;;;15.93;7.50;;;;;;;25.05;100.00;101066.78;20784245;28;20396;-74
2023/06/05 16:47:08;;;;;;;14.20;8.23;;;;;;;24.75;100.00;101063.38;20790921;28;20050;-75
2023/06/05 16:57:31;;;;;;;15.70;7.68;;;;;;;24.44;100.00;101063.66;20822815;28;20067;-75
2023/06/05 17:07:55;;;;;;;15.80;8.93;;;;;;;24.21;100.00;101068.09;20819730;28;20041;-76
2023/06/05 17:18:18;;;;;;;15.57;9.10;;;;;;;23.89;100.00;101067.44;20824649;28;20049;-75
2023/06/05 17:28:42;;;;;;;17.60;10.07;;;;;;;23.62;100.00;101061.16;20824090;28;20100;-76
2023/06/05 17:39:05;;;;;;;15.57;9.73;;;;;;;23.40;100.00;101061.81;20841149;28;20041;-76
2023/06/05 17:49:29;;;;;;;23.27;10.32;;;;;;;23.27;100.00;101062.25;20822169;28;20576;-74
2023/06/05 17:59:52;;;;;;;22.05;12.35;;;;;;;22.95;100.00;101061.44;20798805;28;20057;-74
2023/06/05 18:10:16;;;;;;;18.58;10.63;;;;;;;22.77;100.00;101074.59;20810891;28;20045;-74
2023/06/05 18:20:38;;;;;;;20.15;12.25;;;;;;;22.62;100.00;101083.97;20806406;28;20131;-75
2023/06/05 18:31:02;;;;;;;21.60;11.90;;;;;;;22.47;100.00;101108.59;20824325;28;20045;-75
2023/06/05 18:41:25;;;;;;;19.85;11.40;;;;;;;22.31;100.00;101100.09;20808802;28;20585;-76
2023/06/05 18:51:50;;;;;;;19.55;11.52;;;;;;;22.24;100.00;101118.19;20809359;28;20433;-75
2023/06/05 19:02:12;;;;;;;21.15;12.18;;;;;;;22.23;100.00;101131.69;20795919;28;20115;-75
2023/06/05 19:12:37;;;;;;;18.80;10.30;;;;;;;22.14;100.00;101124.72;20812389;28;20446;-74
2023/06/05 19:23:00;;;;;;;19.77;11.20;;;;;;;22.08;100.00;101124.00;20809198;28;20969;-75
2023/06/05 19:33:25;;;;;;;19.10;12.68;;;;;;;21.87;100.00;101134.34;20791115;28;20452;-76
2023/06/05 19:43:48;;;;;;;19.00;12.30;;;;;;;21.83;100.00;101138.06;20799536;28;20468;-75
2023/06/05 19:54:12;;;;;;;18.08;11.32;;;;;;;21.68;100.00;101148.28;20791991;28;20518;-74
2023/06/05 20:04:35;;;;;;;20.65;10.85;;;;;;;21.57;100.00;101137.78;20805175;28;20518;-75
2023/06/05 20:15:00;;;;;;;17.15;11.55;;;;;;;21.40;100.00;101143.53;20829799;28;20127;-74
2023/06/05 20:25:25;;;;;;;16.33;11.02;;;;;;;21.38;100.00;101134.66;20790994;28;22210;-74
2023/06/05 20:35:49;;;;;;;16.08;11.82;;;;;;;21.31;100.00;101138.41;20772962;28;20050;-75
2023/06/05 20:46:12;;;;;;;19.67;12.63;;;;;;;21.18;100.00;101142.28;20788932;28;20525;-74
2023/06/05 20:56:36;;;;;;;16.35;11.55;;;;;;;20.76;100.00;101140.44;20822476;28;20045;-75
2023/06/05 21:07:01;;;;;;;20.27;12.48;;;;;;;20.83;100.00;101118.81;20806160;28;20064;-74
2023/06/05 21:17:25;;;;;;;20.70;13.30;;;;;;;20.75;100.00;101106.47;20819223;28;20154;-75
2023/06/05 21:27:47;;;;;;;18.15;12.63;;;;;;;20.55;100.00;101091.66;20792583;28;20053;-75
2023/06/05 21:38:12;;;;;;;22.42;14.40;;;;;;;20.46;100.00;101081.13;20816165;28;20527;-74
2023/06/05 21:48:34;;;;;;;18.70;12.77;;;;;;;20.22;100.00;101071.72;20809158;28;20398;-76
2023/06/05 21:58:58;;;;;;;20.77;11.80;;;;;;;20.05;100.00;101059.53;20771043;28;20056;-76
2023/06/05 22:09:21;;;;;;;20.70;12.95;;;;;;;20.03;100.00;101047.97;20789560;28;20053;-75
2023/06/05 22:19:51;;;;;;;17.33;12.52;;;;;;;19.96;100.00;101040.94;20756635;28;20057;-75
2023/06/05 22:30:14;;;;;;;20.75;12.63;;;;;;;19.86;100.00;101029.53;20786275;28;20466;-75
2023/06/05 22:40:38;;;;;;;20.08;12.98;;;;;;;19.70;100.00;101031.59;20810145;28;20065;-74
2023/06/05 22:51:00;;;;;;;19.25;13.52;;;;;;;19.37;100.00;101032.13;20812732;28;20050;-74
2023/06/05 23:01:25;;;;;;;21.63;14.25;;;;;;;19.55;100.00;101018.47;20773933;28;20045;-75
2023/06/05 23:11:48;;;;;;;18.13;12.75;;;;;;;19.58;100.00;101014.84;20789410;28;20474;-75
2023/06/05 23:22:13;;;;;;;18.30;13.00;;;;;;;19.29;100.00;101005.50;20814936;28;20077;-74
2023/06/05 23:32:36;;;;;;;18.77;12.55;;;;;;;19.31;100.00;101008.13;20800402;28;20045;-75
2023/06/05 23:43:00;;;;;;;24.23;13.68;;;;;;;19.37;100.00;101014.25;20811917;28;20501;-75
2023/06/05 23:53:23;;;;;;;20.00;13.82;;;;;;;19.37;100.00;100999.97;20809897;28;20045;-76
